Airfield :
LOGIN :

Register | Disclaimer

   EN    FR    IT 

 










Legend :    VFR   Marginal VFR   IFR   Intensive IFR   Very Intensive IFR
Visi :
Ceiling :
>= 8 km
>= 3000ft
5 to 8 km
1000 to 3000 ft
1500m to 5 km
500 to 1000 ft
800 to 1500m
200 to 500 ft
< 800m
< 200 ft
Symbols :   Thunderstorms  Fog  Heavy snow  Heavy precipitations  Wind > 20 kt
SIGMETs :     Misc.  Thunderstorms  Icing  Turbulence  Mountain Waves  Volcanic Ashes







- Airport Elevation : 443 ft
- IATA code : SQQ


EYSA - Siauliai

CURRENT METAR :
  • 181920Z 28009KT 9999 -SN SCT010 BKN031 OVC036 M01/M02 Q1022 R32R/19//95 R32L/49//95 GRN TEMPO FEW008 OVC036 BLU

EXPIRED METARs :
  • 181850Z 27010KT 9999 -SN SCT006 OVC042 M01/M02 Q1022 R32R/19//95 R32L/49//95 YLO1 TEMPO SCT007 OVC039 GRN
  • 181820Z 27011KT 7000 -SN SCT005 BKN024 OVC039 M02/M02 Q1022 R32R/19//95 R32L/49//95 YLO1 NOSIG
  • 181750Z 27011KT 5000 -SN BR BKN005 BKN015 OVC021 M02/M02 Q1023 R32R/19//95 R32L/49//95 YLO1 NOSIG
  • 181734Z 27010KT 5000 -SN BR BKN005 OVC017 M02/M02 Q1023 R32R/19//95 R32L/49//95 YLO1 NOSIG
  • 181720Z 27010KT 6000 -SN FEW006 BKN018 OVC022 M02/M02 Q1023 R32R/19//95 R32L/49//95 GRN TEMPO BKN005 OVC024 YLO1
  • 181650Z 26009KT 6000 -SN FEW007 OVC015 M03/M03 Q1023 R32R/19//95 R32L/49//95 WHT TEMPO SCT007 OVC016 GRN
  • 181620Z 25009KT 6000 -SN FEW015 SCT021 OVC037 M03/M03 Q1023 R32R/19//95 R32L/49//95 WHT NOSIG

TAF TAF EYSA
Valid from the 18 at 18:00 until the 19 at 03:00 UTC


181703Z 1818/1903 28007KT 7000 BKN015
TEMPO 1818/1824 4000 -SN BKN008
TEMPO 1900/1903 2000 SN BR BKN004
No reported NOTAMs for that airfield.



MET'MAP, your aeronautical weather chart ! - Copyright ORBIFLY December 2007 - Disclaimer

ORBIFLY MET'MAP TEAM :

Programming & Development : Alexandra Zaïnal
Concept & Development : Baudouin d'Aumeries
Co-Development & Prog : Marc-Olivier Méhu
Technical & hardware support : Manuel Goepfert

Contact : metmap@orbifly.com




SOURCES & CREDITS :

   NOAA